Time;durP1;ratioP1;P1;durP2;ratioP2;P2;SDS_P1;SDS_P2;PMS_P1;PMS_P2;Temp;Humidity;BMP_temperature;BMP_pressure;BME280_temperature;BME280_humidity;BME280_pressure;Samples;Min_cycle;Max_cycle;Signal;HPM_P1;HPM_P2
2021/07/31 00:01:14;;;;;;;19.90;9.35;;;;;;;22.33;58.19;98105.94;4975622;28;20050;-73
2021/07/31 00:03:41;;;;;;;24.77;9.07;;;;;;;22.22;58.55;98097.53;4977131;28;20042;-73
2021/07/31 00:06:07;;;;;;;18.20;8.77;;;;;;;22.15;58.67;98089.97;4977397;28;20511;-73
2021/07/31 00:08:34;;;;;;;25.80;8.98;;;;;;;22.15;58.57;98098.31;4971280;28;20890;-73
2021/07/31 00:11:00;;;;;;;27.98;9.27;;;;;;;22.12;58.80;98092.78;4972597;28;20541;-73
2021/07/31 00:13:27;;;;;;;25.08;8.32;;;;;;;22.12;58.40;98096.34;4951394;28;20047;-73
2021/07/31 00:15:53;;;;;;;22.48;8.77;;;;;;;22.10;58.65;98098.72;4961772;28;20057;-73
2021/07/31 00:18:19;;;;;;;20.23;7.90;;;;;;;22.07;58.39;98102.31;4934507;28;20047;-71
2021/07/31 00:20:45;;;;;;;24.45;7.72;;;;;;;22.04;58.53;98095.53;4952794;28;20059;-75
2021/07/31 00:23:11;;;;;;;19.55;8.10;;;;;;;21.99;58.94;98095.13;4956595;28;20053;-71
2021/07/31 00:25:39;;;;;;;27.08;8.98;;;;;;;21.96;58.98;98091.94;4962113;28;20043;-72
2021/07/31 00:28:12;;;;;;;22.42;9.02;;;;;;;21.94;58.78;98096.31;4964298;28;20092;-72
2021/07/31 00:30:38;;;;;;;18.60;7.72;;;;;;;21.90;58.72;98095.50;4952780;28;20051;-73
2021/07/31 00:33:04;;;;;;;21.45;7.82;;;;;;;21.86;58.70;98092.72;4956588;28;20038;-72
2021/07/31 00:35:30;;;;;;;19.90;8.73;;;;;;;21.90;58.91;98096.28;4970903;28;20593;-72
2021/07/31 00:37:56;;;;;;;22.65;8.60;;;;;;;21.90;58.80;98098.28;4981633;28;20087;-73
2021/07/31 00:40:24;;;;;;;27.85;11.15;;;;;;;21.88;58.91;98097.88;4984640;28;20042;-74
2021/07/31 00:42:52;;;;;;;26.88;9.85;;;;;;;21.83;58.80;98092.69;4971497;28;20502;-72
2021/07/31 00:45:18;;;;;;;25.20;9.63;;;;;;;21.88;59.25;98095.09;4967854;28;20070;-70
2021/07/31 00:47:45;;;;;;;15.27;8.32;;;;;;;21.85;59.54;98093.09;4949137;28;20069;-70
2021/07/31 00:50:12;;;;;;;25.52;8.10;;;;;;;21.72;59.85;98087.09;4951185;28;20536;-70
2021/07/31 00:52:40;;;;;;;16.50;7.20;;;;;;;21.75;59.84;98084.31;4954266;28;20383;-70
2021/07/31 00:55:10;;;;;;;18.08;6.65;;;;;;;21.74;59.91;98095.84;4958323;28;20397;-71
2021/07/31 00:57:39;;;;;;;13.95;5.97;;;;;;;21.74;59.88;98090.28;4964817;28;20074;-70
2021/07/31 01:00:26;;;;;;;15.18;6.57;;;;;;;21.77;59.92;98090.28;4963183;28;20077;-70
2021/07/31 01:02:53;;;;;;;13.68;6.47;;;;;;;21.75;59.87;98083.53;4984449;28;20073;-70
2021/07/31 01:05:19;;;;;;;13.73;5.93;;;;;;;21.70;59.72;98098.59;4970806;28;20051;-71
2021/07/31 01:07:46;;;;;;;15.25;6.65;;;;;;;21.60;59.98;98090.97;4972195;28;20321;-71
2021/07/31 01:10:13;;;;;;;17.70;6.53;;;;;;;21.52;59.69;98068.72;4965521;29;20051;-70
2021/07/31 01:12:42;;;;;;;19.80;6.53;;;;;;;21.71;59.47;98093.84;4967093;28;20096;-71
2021/07/31 01:15:10;;;;;;;29.48;7.10;;;;;;;21.66;59.55;98100.59;4952390;28;20066;-70
2021/07/31 01:17:37;;;;;;;14.27;6.43;;;;;;;21.56;59.79;98099.31;4967123;28;20070;-70
2021/07/31 01:20:05;;;;;;;16.08;6.18;;;;;;;21.53;59.80;98103.69;4967369;28;20045;-70
2021/07/31 01:22:34;;;;;;;20.50;6.97;;;;;;;21.58;59.94;98099.72;4948888;28;20047;-71
2021/07/31 01:25:08;;;;;;;15.65;6.93;;;;;;;21.59;59.80;98100.50;4934864;29;20051;-70
2021/07/31 01:27:34;;;;;;;;;;;;;;;21.67;59.51;98099.41;4952509;28;20051;-69
2021/07/31 01:30:01;;;;;;;17.98;7.35;;;;;;;21.68;59.62;98099.00;4962390;28;20032;-71
2021/07/31 01:32:27;;;;;;;18.33;7.27;;;;;;;21.69;59.44;98102.56;4954566;28;20054;-69
2021/07/31 01:34:53;;;;;;;22.50;9.45;;;;;;;21.65;59.61;98105.34;4939984;28;20462;-70
2021/07/31 01:37:19;;;;;;;21.33;8.63;;;;;;;21.71;59.48;98099.41;4950065;28;20051;-69
2021/07/31 01:39:49;;;;;;;18.88;6.80;;;;;;;21.73;59.36;98106.16;4939916;28;20460;-70
2021/07/31 01:42:16;;;;;;;15.50;7.43;;;;;;;21.70;59.13;98104.16;4952016;28;20100;-71
2021/07/31 01:44:44;;;;;;;16.85;6.57;;;;;;;21.67;59.08;98105.75;4961245;28;20513;-70
2021/07/31 01:47:10;;;;;;;14.38;6.93;;;;;;;21.59;59.13;98106.06;4966674;28;20538;-69
2021/07/31 01:49:36;;;;;;;14.32;6.03;;;;;;;21.49;59.64;98099.28;4963335;28;20062;-71
2021/07/31 01:52:08;;;;;;;16.48;6.75;;;;;;;21.42;59.84;98113.16;4959732;28;20062;-70
2021/07/31 01:54:35;;;;;;;16.58;6.28;;;;;;;21.27;60.31;98107.53;4951701;28;20475;-71
2021/07/31 01:57:03;;;;;;;12.23;6.45;;;;;;;21.18;60.40;98099.53;4965795;28;20051;-70
2021/07/31 01:59:52;;;;;;;14.85;6.07;;;;;;;21.14;60.87;98103.47;4960397;28;20120;-71
2021/07/31 02:02:22;;;;;;;13.75;6.35;;;;;;;21.14;60.83;98103.47;4958185;28;20077;-70
2021/07/31 02:04:57;;;;;;;16.15;6.60;;;;;;;21.20;60.56;98108.28;4950879;28;20063;-69
2021/07/31 02:07:24;;;;;;;13.25;6.22;;;;;;;21.13;60.59;98108.22;4958568;28;20134;-70
2021/07/31 02:09:52;;;;;;;13.85;6.22;;;;;;;21.13;60.62;98108.22;4960552;28;20048;-71
2021/07/31 02:12:20;;;;;;;14.13;6.03;;;;;;;21.18;60.84;98116.19;4964947;28;20136;-71
2021/07/31 02:14:48;;;;;;;16.58;6.80;;;;;;;21.18;60.75;98107.06;4950629;28;20051;-69
2021/07/31 02:17:16;;;;;;;15.55;6.38;;;;;;;21.01;60.83;98116.88;4952094;28;20055;-69
2021/07/31 02:19:45;;;;;;;12.25;6.22;;;;;;;21.00;60.71;98115.28;4965097;28;20465;-71
2021/07/31 02:22:25;;;;;;;14.27;6.85;;;;;;;20.95;60.96;98114.44;4948975;28;20411;-70
2021/07/31 02:25:10;;;;;;;26.05;6.35;;;;;;;20.90;61.30;98114.00;4954786;28;20050;-70
2021/07/31 02:27:56;;;;;;;12.90;6.03;;;;;;;20.87;61.31;98126.69;4965213;28;20055;-71
2021/07/31 02:30:22;;;;;;;15.88;6.50;;;;;;;20.76;61.18;98123.81;4959149;28;20638;-71
2021/07/31 02:32:48;;;;;;;14.23;6.63;;;;;;;20.52;62.08;98123.22;4971827;28;20055;-71
2021/07/31 02:35:15;;;;;;;14.32;6.32;;;;;;;20.41;62.23;98127.84;4925244;29;20051;-71
2021/07/31 02:38:13;;;;;;;13.52;6.35;;;;;;;20.40;62.63;98129.03;4988148;28;20487;-72
2021/07/31 02:40:39;;;;;;;15.02;6.80;;;;;;;20.44;62.41;98123.53;4972550;28;20470;-72
2021/07/31 02:43:06;;;;;;;18.88;7.60;;;;;;;20.36;62.43;98128.22;4965294;28;20043;-70
2021/07/31 02:45:34;;;;;;;14.95;7.05;;;;;;;20.36;62.34;98133.75;4961599;28;20129;-71
2021/07/31 02:48:02;;;;;;;16.30;6.78;;;;;;;20.25;63.17;98128.88;4965662;28;20043;-71
2021/07/31 02:50:29;;;;;;;13.23;6.63;;;;;;;20.15;63.11;98124.06;4951850;29;20062;-71
2021/07/31 02:53:11;;;;;;;18.15;6.75;;;;;;;20.08;63.61;98132.28;5002690;28;20074;-70
2021/07/31 02:55:38;;;;;;;19.63;8.50;;;;;;;20.12;63.18;98124.78;4959296;28;20051;-71
2021/07/31 02:58:06;;;;;;;20.80;8.25;;;;;;;20.12;63.05;98117.28;4956261;28;20076;-71
2021/07/31 03:00:33;;;;;;;16.63;7.18;;;;;;;20.14;63.34;98121.66;4950384;28;20055;-71
2021/07/31 03:02:59;;;;;;;17.57;8.03;;;;;;;20.20;62.88;98120.09;4959886;28;20388;-72
2021/07/31 03:05:26;;;;;;;20.33;7.97;;;;;;;20.03;63.91;98111.22;4971007;28;20077;-71
2021/07/31 03:08:02;;;;;;;14.80;7.63;;;;;;;20.05;63.84;98131.06;4961960;28;20061;-72
2021/07/31 03:10:29;;;;;;;17.30;7.72;;;;;;;19.79;64.43;98134.69;4936590;28;20116;-72
2021/07/31 03:12:56;;;;;;;17.70;9.02;;;;;;;19.73;64.98;98138.97;4954515;28;20519;-71
2021/07/31 03:15:24;;;;;;;18.40;8.40;;;;;;;19.30;66.79;98140.00;4967517;28;20066;-72
2021/07/31 03:17:50;;;;;;;16.92;7.55;;;;;;;19.05;67.32;98132.13;4959837;28;20534;-72
2021/07/31 03:20:18;;;;;;;20.38;8.40;;;;;;;19.05;67.69;98143.22;4965386;28;20051;-71
2021/07/31 03:22:51;;;;;;;15.30;7.35;;;;;;;19.04;67.98;98151.88;4969746;28;20062;-71
2021/07/31 03:25:17;;;;;;;18.08;7.35;;;;;;;19.16;67.55;98146.13;4970204;28;20096;-69
2021/07/31 03:27:43;;;;;;;13.43;7.45;;;;;;;19.37;66.61;98145.66;4962728;28;20051;-71
2021/07/31 03:30:15;;;;;;;18.00;7.10;;;;;;;19.44;66.72;98144.97;4957354;28;20129;-72
2021/07/31 03:33:00;;;;;;;20.80;7.45;;;;;;;19.51;66.32;98147.81;4961710;28;20063;-71
2021/07/31 03:35:26;;;;;;;16.17;6.90;;;;;;;19.43;66.41;98143.34;4950284;28;20047;-71
2021/07/31 03:38:21;;;;;;;14.45;7.07;;;;;;;19.41;66.89;98149.25;4955197;28;20066;-70
2021/07/31 03:40:49;;;;;;;14.32;6.65;;;;;;;19.38;66.98;98146.44;4968838;28;20051;-70
2021/07/31 03:43:18;;;;;;;14.85;6.15;;;;;;;19.36;66.74;98157.91;4957829;28;20059;-71
2021/07/31 03:45:45;;;;;;;16.85;6.80;;;;;;;19.17;66.70;98138.63;4950838;28;20058;-72
2021/07/31 03:48:13;;;;;;;16.40;7.00;;;;;;;19.21;66.78;98156.88;4955355;28;20047;-71
2021/07/31 03:50:42;;;;;;;13.27;6.78;;;;;;;19.42;66.40;98161.94;4946312;28;20585;-71
2021/07/31 03:53:10;;;;;;;18.00;7.00;;;;;;;19.37;66.20;98162.28;4955402;28;20089;-71
2021/07/31 03:55:39;;;;;;;16.50;7.38;;;;;;;19.39;66.20;98168.25;4934901;28;20075;-72
2021/07/31 03:58:05;;;;;;;14.20;6.85;;;;;;;19.42;65.81;98159.19;4956375;28;20132;-70
2021/07/31 04:00:32;;;;;;;13.27;6.40;;;;;;;19.49;65.74;98150.16;4945842;28;20047;-71
2021/07/31 04:03:03;;;;;;;21.30;6.85;;;;;;;19.54;65.10;98155.38;4953208;28;20059;-70
2021/07/31 04:05:30;;;;;;;17.50;6.55;;;;;;;19.68;64.74;98152.00;4966586;28;20036;-69
2021/07/31 04:08:23;;;;;;;13.80;6.40;;;;;;;19.71;64.40;98155.97;4972459;28;20061;-71
2021/07/31 04:11:07;;;;;;;24.73;6.35;;;;;;;19.79;63.57;98156.88;4954489;28;20066;-70
2021/07/31 04:13:54;;;;;;;13.90;6.28;;;;;;;19.80;63.61;98164.81;4949997;28;20058;-69
2021/07/31 04:16:28;;;;;;;34.50;7.07;;;;;;;19.88;63.46;98154.63;4941910;29;20043;-70
2021/07/31 04:18:54;;;;;;;28.57;6.83;;;;;;;19.90;63.57;98162.53;4948140;28;20055;-70
2021/07/31 04:21:21;;;;;;;14.30;6.95;;;;;;;19.92;64.17;98163.00;4969114;28;20057;-69
2021/07/31 04:23:48;;;;;;;19.98;7.15;;;;;;;19.90;63.71;98146.72;4957263;28;20046;-68
2021/07/31 04:26:16;;;;;;;16.25;7.18;;;;;;;20.04;63.85;98151.66;4966674;28;20470;-69
2021/07/31 04:28:43;;;;;;;15.07;6.53;;;;;;;20.09;63.46;98172.72;4963153;28;20046;-70
2021/07/31 04:31:10;;;;;;;16.13;6.70;;;;;;;20.16;63.51;98164.47;4958829;28;20389;-70
2021/07/31 04:33:37;;;;;;;18.70;7.05;;;;;;;20.15;63.59;98159.31;4961775;28;20078;-70
2021/07/31 04:36:03;;;;;;;14.88;6.60;;;;;;;20.18;63.35;98164.09;4951568;28;20051;-69
2021/07/31 04:38:31;;;;;;;18.65;7.03;;;;;;;20.12;63.29;98164.44;4944714;28;20056;-70
2021/07/31 04:40:58;;;;;;;14.75;6.63;;;;;;;20.24;63.11;98163.38;4956326;28;20051;-71
2021/07/31 04:43:24;;;;;;;16.65;6.00;;;;;;;20.31;62.54;98165.41;4963648;28;20101;-71
2021/07/31 04:45:50;;;;;;;15.70;6.87;;;;;;;20.44;61.89;98165.94;4949562;28;20058;-70
2021/07/31 04:48:16;;;;;;;14.20;6.13;;;;;;;20.50;61.32;98161.66;4966386;28;20092;-73
2021/07/31 04:50:42;;;;;;;16.40;6.68;;;;;;;20.54;61.56;98158.91;4948977;28;20097;-70
2021/07/31 04:53:08;;;;;;;21.63;6.80;;;;;;;20.65;61.06;98162.56;4953760;28;20097;-71
2021/07/31 04:55:36;;;;;;;20.13;5.97;;;;;;;20.66;60.38;98157.84;4953130;28;20450;-70
2021/07/31 04:58:02;;;;;;;13.68;6.93;;;;;;;20.65;60.35;98157.03;4961069;28;20058;-71
2021/07/31 05:00:28;;;;;;;15.00;6.13;;;;;;;20.74;60.42;98155.91;4961729;28;20419;-70
2021/07/31 05:02:54;;;;;;;16.98;6.63;;;;;;;20.74;60.23;98158.69;4951752;28;20071;-72
2021/07/31 05:05:19;;;;;;;15.38;6.55;;;;;;;20.81;59.91;98159.59;4951526;28;20464;-72
2021/07/31 05:07:45;;;;;;;17.92;6.32;;;;;;;20.83;59.17;98160.00;4955050;28;20039;-71
2021/07/31 05:10:11;;;;;;;16.33;5.88;;;;;;;20.83;58.99;98154.44;4964940;28;20054;-72
2021/07/31 05:12:39;;;;;;;24.33;6.82;;;;;;;20.86;59.02;98154.84;4968583;28;20133;-71
2021/07/31 05:15:07;;;;;;;21.58;6.28;;;;;;;20.76;59.44;98143.25;4958451;28;20081;-71
2021/07/31 05:17:34;;;;;;;17.13;6.35;;;;;;;20.83;58.90;98146.09;4952590;28;20511;-71
2021/07/31 05:20:00;;;;;;;;;;;;;;;20.94;58.27;98148.97;4954133;28;20055;-69
2021/07/31 05:22:26;;;;;;;20.43;6.97;;;;;;;21.01;58.38;98167.66;4968080;28;20033;-71
2021/07/31 05:24:53;;;;;;;22.90;8.23;;;;;;;21.07;58.02;98166.16;4953888;28;20085;-71
2021/07/31 05:27:20;;;;;;;23.67;6.80;;;;;;;21.14;57.98;98159.81;4955468;28;20066;-70
2021/07/31 05:29:47;;;;;;;20.95;6.40;;;;;;;21.18;57.65;98165.41;4953807;28;20054;-72
2021/07/31 05:32:13;;;;;;;15.13;6.90;;;;;;;21.16;58.21;98167.78;4951194;28;20055;-72
2021/07/31 05:34:39;;;;;;;13.85;6.30;;;;;;;21.17;58.08;98169.38;4950790;28;20072;-72
2021/07/31 05:37:05;;;;;;;19.00;6.75;;;;;;;21.20;58.01;98174.97;4956487;28;20134;-71
2021/07/31 05:39:33;;;;;;;20.02;6.93;;;;;;;21.22;58.01;98171.78;4954272;28;20418;-72
2021/07/31 05:42:02;;;;;;;18.25;7.32;;;;;;;21.21;58.54;98164.63;4948725;28;20051;-71
2021/07/31 05:44:28;;;;;;;30.92;7.35;;;;;;;21.39;58.47;98173.91;4952056;28;20045;-70
2021/07/31 05:46:56;;;;;;;19.73;8.82;;;;;;;21.35;58.91;98180.63;4954654;28;20043;-72
2021/07/31 05:49:22;;;;;;;18.98;8.20;;;;;;;21.36;59.00;98190.56;4960753;28;20050;-70
2021/07/31 05:51:47;;;;;;;21.10;8.00;;;;;;;21.18;59.11;98179.28;4979242;28;20058;-71
2021/07/31 05:54:15;;;;;;;12.85;6.65;;;;;;;21.09;58.59;98176.84;4997294;28;20534;-70
2021/07/31 05:56:42;;;;;;;18.25;7.13;;;;;;;21.16;58.31;98179.69;4964138;28;20419;-71
2021/07/31 05:59:09;;;;;;;13.27;7.22;;;;;;;21.27;58.17;98178.97;4954633;28;20046;-71
2021/07/31 06:01:36;;;;;;;17.00;7.45;;;;;;;21.30;57.93;98165.09;4971943;28;20046;-71
2021/07/31 06:04:04;;;;;;;14.13;6.50;;;;;;;21.47;57.53;98174.75;4979856;28;20046;-70
2021/07/31 06:06:30;;;;;;;16.58;6.43;;;;;;;21.56;57.37;98162.47;4974756;28;20522;-70
2021/07/31 06:08:58;;;;;;;28.25;7.40;;;;;;;21.59;57.30;98183.91;4983886;28;20062;-70
2021/07/31 06:11:24;;;;;;;20.80;6.10;;;;;;;21.67;57.29;98155.00;4967029;28;20141;-70
2021/07/31 06:13:50;;;;;;;18.17;7.28;;;;;;;21.76;57.02;98165.78;4987052;28;20131;-72
2021/07/31 06:16:16;;;;;;;22.45;6.97;;;;;;;21.74;56.72;98174.50;4976416;28;20181;-70
2021/07/31 06:18:43;;;;;;;18.55;7.63;;;;;;;21.72;55.99;98173.31;4969890;28;20363;-71
2021/07/31 06:21:15;;;;;;;13.95;6.95;;;;;;;21.71;56.12;98175.28;4986046;28;20049;-73
2021/07/31 06:23:42;;;;;;;17.92;6.80;;;;;;;21.75;56.20;98166.97;4962583;28;20668;-70
2021/07/31 06:26:08;;;;;;;17.02;6.20;;;;;;;21.85;55.76;98173.75;4963108;28;20074;-71
2021/07/31 06:28:34;;;;;;;23.95;6.65;;;;;;;21.87;54.36;98180.53;4965365;28;20142;-70
2021/07/31 06:31:00;;;;;;;13.68;6.95;;;;;;;21.83;54.60;98171.34;4956897;28;20142;-70
2021/07/31 06:33:26;;;;;;;13.85;6.15;;;;;;;21.90;54.23;98162.25;4964240;28;20062;-70
2021/07/31 06:35:52;;;;;;;12.35;5.80;;;;;;;21.91;54.54;98173.00;4961096;28;20475;-71
2021/07/31 06:38:20;;;;;;;13.05;5.70;;;;;;;21.89;54.09;98167.03;4942462;28;20405;-71
2021/07/31 06:40:46;;;;;;;19.08;6.00;;;;;;;21.96;54.24;98177.38;4970171;28;20078;-70
2021/07/31 06:43:12;;;;;;;18.48;5.93;;;;;;;22.05;53.84;98165.91;4959378;28;20519;-71
2021/07/31 06:45:39;;;;;;;11.38;5.70;;;;;;;22.12;53.53;98159.56;4959386;28;20051;-72
2021/07/31 06:48:05;;;;;;;13.68;6.13;;;;;;;22.23;53.54;98171.50;4962298;28;20456;-70
2021/07/31 06:50:31;;;;;;;16.45;5.93;;;;;;;22.22;53.00;98181.84;4961252;28;20096;-70
2021/07/31 06:52:57;;;;;;;17.90;5.93;;;;;;;22.22;51.69;98181.84;4952383;28;20563;-76
2021/07/31 06:55:25;;;;;;;14.13;5.13;;;;;;;22.28;50.44;98226.00;4930049;28;20051;-70
2021/07/31 06:57:51;;;;;;;25.98;5.75;;;;;;;22.34;50.08;98175.13;4945368;29;20051;-70
2021/07/31 07:00:17;;;;;;;23.77;5.95;;;;;;;22.47;50.37;98158.84;4957103;28;20066;-71
2021/07/31 07:02:43;;;;;;;27.37;7.20;;;;;;;22.59;50.54;98138.22;4975755;28;20104;-71
2021/07/31 07:05:09;;;;;;;16.55;5.75;;;;;;;22.61;48.59;98196.28;4968308;28;20050;-69
2021/07/31 07:07:37;;;;;;;15.27;6.23;;;;;;;22.58;49.09;98172.81;4958820;28;20054;-68
2021/07/31 07:10:04;;;;;;;12.60;5.40;;;;;;;22.69;48.95;98160.88;4958242;28;20039;-69
2021/07/31 07:12:31;;;;;;;;;;;;;;;22.76;49.31;98153.31;4971547;28;20050;-70
2021/07/31 07:14:58;;;;;;;25.08;6.00;;;;;;;22.81;49.08;98163.28;4984294;28;19933;-70
2021/07/31 07:17:24;;;;;;;12.85;5.88;;;;;;;22.88;48.78;98148.53;4978223;28;20052;-70
2021/07/31 07:19:50;;;;;;;41.88;5.55;;;;;;;22.94;47.93;98139.41;4960968;28;20070;-71
2021/07/31 07:22:16;;;;;;;29.83;5.28;;;;;;;23.00;46.48;98159.28;4953539;28;20043;-69
2021/07/31 07:24:42;;;;;;;21.58;5.22;;;;;;;23.01;44.83;98157.28;4969743;28;20477;-68
2021/07/31 07:27:08;;;;;;;13.75;4.75;;;;;;;23.10;45.16;98160.47;4963494;28;20569;-70
2021/07/31 07:29:35;;;;;;;21.08;5.60;;;;;;;23.18;44.61;98161.25;4967212;28;20051;-71
2021/07/31 07:32:04;;;;;;;17.10;6.03;;;;;;;23.22;44.13;98167.63;4962989;28;20049;-69
2021/07/31 07:34:30;;;;;;;13.27;5.57;;;;;;;23.26;44.16;98168.47;4958443;28;20081;-70
2021/07/31 07:36:56;;;;;;;19.73;5.85;;;;;;;23.26;43.77;98184.34;4940788;28;20051;-73
2021/07/31 07:39:22;;;;;;;25.73;5.33;;;;;;;23.32;44.18;98169.66;4967268;28;20069;-73
2021/07/31 07:41:48;;;;;;;13.73;4.55;;;;;;;23.39;42.87;98173.59;4971472;28;20046;-71
2021/07/31 07:44:15;;;;;;;22.67;5.05;;;;;;;23.46;42.31;98159.66;4962112;28;20057;-71
2021/07/31 07:46:43;;;;;;;39.05;5.30;;;;;;;23.47;41.96;98159.25;4955322;28;20138;-70
2021/07/31 07:49:08;;;;;;;37.28;5.28;;;;;;;23.48;42.17;98158.03;4952154;28;20054;-71
2021/07/31 07:51:34;;;;;;;42.17;5.70;;;;;;;23.54;41.70;98171.59;4963595;28;20051;-70
2021/07/31 07:54:01;;;;;;;19.80;5.25;;;;;;;23.56;41.69;98172.75;4970337;28;20137;-71
2021/07/31 07:56:27;;;;;;;27.53;5.23;;;;;;;23.54;40.83;98183.53;4959590;28;20043;-69
2021/07/31 07:58:57;;;;;;;16.92;3.78;;;;;;;23.47;40.18;98181.56;4955451;28;20104;-71
2021/07/31 08:01:23;;;;;;;45.95;5.05;;;;;;;23.51;40.15;98173.19;4969706;28;20053;-70
2021/07/31 08:03:51;;;;;;;18.67;5.05;;;;;;;23.52;40.54;98163.63;4981016;28;20074;-70
2021/07/31 08:06:17;;;;;;;47.58;6.03;;;;;;;23.59;40.70;98179.53;4978987;28;20043;-71
2021/07/31 08:08:43;;;;;;;37.17;5.78;;;;;;;23.56;41.08;98147.66;4963459;28;20083;-70
2021/07/31 08:11:09;;;;;;;21.80;4.45;;;;;;;23.68;40.99;98179.94;4960975;28;20123;-71
2021/07/31 08:13:37;;;;;;;27.20;4.47;;;;;;;23.71;40.77;98178.31;4958327;28;20507;-70
2021/07/31 08:16:04;;;;;;;17.73;4.33;;;;;;;23.79;41.34;98174.31;4952147;29;20056;-69
2021/07/31 08:18:30;;;;;;;15.98;4.50;;;;;;;23.87;42.18;98178.66;4919570;28;20299;-70
2021/07/31 08:20:57;;;;;;;25.02;6.10;;;;;;;23.96;41.78;98169.06;4958414;28;20461;-71
2021/07/31 08:23:23;;;;;;;16.73;4.63;;;;;;;24.03;42.28;98178.22;4971386;28;20096;-71
2021/07/31 08:25:49;;;;;;;17.77;4.78;;;;;;;24.10;42.25;98168.22;4948175;28;20047;-71
2021/07/31 08:28:15;;;;;;;23.27;5.50;;;;;;;24.09;41.50;98203.72;4958030;28;20146;-71
2021/07/31 08:30:41;;;;;;;20.23;4.50;;;;;;;24.04;39.75;98184.59;4957448;28;20225;-72
2021/07/31 08:33:07;;;;;;;32.42;5.00;;;;;;;24.05;39.83;98175.03;4960404;28;20051;-72
2021/07/31 08:35:34;;;;;;;21.13;4.75;;;;;;;24.16;40.60;98181.34;4952118;28;20104;-74
2021/07/31 08:38:01;;;;;;;22.20;4.57;;;;;;;24.25;40.84;98157.78;4971280;28;20051;-73
2021/07/31 08:40:28;;;;;;;38.22;5.68;;;;;;;24.31;41.52;98182.06;4964197;28;20051;-77
2021/07/31 08:42:54;;;;;;;28.65;6.75;;;;;;;24.35;41.05;98168.06;4945353;28;20050;-77
2021/07/31 08:45:20;;;;;;;15.75;4.78;;;;;;;24.35;41.78;98188.44;4957302;28;20093;-78
2021/07/31 08:47:50;;;;;;;15.60;4.73;;;;;;;24.40;41.45;98169.66;4946618;28;20051;-77
2021/07/31 08:50:16;;;;;;;14.23;4.55;;;;;;;24.50;41.72;98193.94;4947189;28;20054;-77
2021/07/31 08:52:47;;;;;;;14.68;5.03;;;;;;;24.53;40.65;98178.38;4920017;29;20073;-77
2021/07/31 08:55:14;;;;;;;12.65;5.05;;;;;;;24.63;41.19;98171.88;4959160;28;20053;-77
2021/07/31 08:57:41;;;;;;;11.52;4.28;;;;;;;24.72;40.92;98177.81;4952587;28;20104;-77
2021/07/31 09:00:08;;;;;;;20.50;5.25;;;;;;;24.80;41.15;98184.19;4952928;28;20047;-76
2021/07/31 09:02:42;;;;;;;17.20;5.00;;;;;;;24.85;40.86;98172.56;4949936;28;20096;-78
2021/07/31 09:05:09;;;;;;;12.73;4.75;;;;;;;24.86;39.51;98207.69;4955455;28;20277;-78
2021/07/31 09:07:35;;;;;;;23.90;4.90;;;;;;;24.91;38.92;98229.63;4958303;28;20065;-78
2021/07/31 09:10:28;;;;;;;44.00;5.78;;;;;;;24.73;38.74;98147.88;4960946;28;20046;-77
2021/07/31 09:12:56;;;;;;;37.42;5.43;;;;;;;24.70;38.60;98171.84;4944678;29;20055;-78
2021/07/31 09:15:30;;;;;;;40.05;6.45;;;;;;;24.89;38.87;98176.09;4961934;28;20055;-79
2021/07/31 09:18:19;;;;;;;31.63;5.13;;;;;;;24.65;38.33;98216.97;4965578;28;20042;-77
2021/07/31 09:20:56;;;;;;;25.33;5.20;;;;;;;24.76;38.86;98175.81;4966388;28;20132;-77
2021/07/31 09:23:22;;;;;;;21.83;4.97;;;;;;;24.64;38.70;98185.47;4968891;28;20070;-77
2021/07/31 09:26:00;;;;;;;27.70;4.93;;;;;;;24.77;38.74;98226.91;4963954;28;20143;-78
2021/07/31 09:28:27;;;;;;;16.23;4.95;;;;;;;24.71;38.23;98254.47;4955349;28;20493;-78
2021/07/31 09:30:53;;;;;;;29.40;5.18;;;;;;;24.66;38.44;98184.25;4956916;28;20059;-78
2021/07/31 09:33:20;;;;;;;23.75;5.35;;;;;;;24.82;38.33;98239.63;4976265;28;20070;-78
2021/07/31 09:35:46;;;;;;;;;;;;;;;24.60;38.61;98195.06;4958174;28;20062;-78
2021/07/31 09:38:13;;;;;;;15.43;4.37;;;;;;;24.56;39.02;98236.19;4956242;28;19930;-76
2021/07/31 09:40:41;;;;;;;12.88;5.15;;;;;;;24.48;39.05;98215.91;4952471;28;20047;-78
2021/07/31 09:43:14;;;;;;;19.67;5.40;;;;;;;24.54;39.30;98189.09;4950286;28;20054;-78
2021/07/31 09:45:42;;;;;;;19.30;5.10;;;;;;;24.57;39.13;98213.44;4972813;28;20419;-80
2021/07/31 09:48:09;;;;;;;15.55;4.68;;;;;;;24.76;39.24;98211.38;5002924;28;20046;-80
2021/07/31 09:50:37;;;;;;;18.10;5.53;;;;;;;24.79;38.70;98179.81;4990112;28;20419;-81
2021/07/31 09:53:08;;;;;;;16.40;4.55;;;;;;;25.03;37.95;98210.75;5003238;28;20064;-77
2021/07/31 09:55:42;;;;;;;19.85;5.13;;;;;;;25.18;37.63;98192.63;5005933;28;20046;-81
2021/07/31 09:58:10;;;;;;;25.92;4.60;;;;;;;25.14;37.63;98228.22;5008224;28;20050;-80
2021/07/31 10:00:40;;;;;;;20.52;4.65;;;;;;;25.23;37.72;98187.84;5010629;28;20068;-80
2021/07/31 10:03:06;;;;;;;17.85;4.50;;;;;;;25.34;37.73;98189.31;5007854;28;20046;-80
2021/07/31 10:05:33;;;;;;;17.92;4.32;;;;;;;25.42;37.89;98187.25;5007298;28;20147;-80
2021/07/31 10:08:00;;;;;;;20.45;4.43;;;;;;;25.48;38.04;98184.81;4990489;28;20072;-80
2021/07/31 10:10:26;;;;;;;13.50;4.95;;;;;;;25.59;37.55;98190.28;4988082;28;20574;-82
2021/07/31 10:12:54;;;;;;;16.17;4.07;;;;;;;25.43;35.42;98218.78;4976637;28;20054;-80
2021/07/31 10:15:20;;;;;;;19.42;4.97;;;;;;;25.42;35.16;98189.22;5020679;28;20133;-80
2021/07/31 10:17:48;;;;;;;19.58;4.20;;;;;;;25.60;35.55;98203.06;5021586;28;20133;-80
2021/07/31 10:20:23;;;;;;;17.73;4.10;;;;;;;25.52;35.38;98196.75;5004731;28;20177;-79
2021/07/31 10:22:49;;;;;;;15.10;4.20;;;;;;;25.59;35.50;98184.69;5002965;28;20536;-80
2021/07/31 10:25:16;;;;;;;17.00;4.63;;;;;;;25.74;35.54;98194.53;5007057;28;20050;-80
2021/07/31 10:27:42;;;;;;;17.80;4.15;;;;;;;25.70;34.85;98246.94;4995456;28;20472;-80
2021/07/31 10:30:26;;;;;;;10.75;4.13;;;;;;;25.72;35.06;98208.16;5011545;28;20054;-81
2021/07/31 10:32:55;;;;;;;17.27;4.30;;;;;;;25.81;35.38;98173.25;5007420;28;20510;-80
2021/07/31 10:35:35;;;;;;;15.90;4.60;;;;;;;25.98;34.27;98207.84;4994036;28;20053;-81
2021/07/31 10:38:04;;;;;;;17.83;4.63;;;;;;;25.89;33.76;98253.91;5011902;28;20137;-80
2021/07/31 10:40:51;;;;;;;20.10;4.10;;;;;;;25.77;33.51;98216.06;5009237;28;20042;-80
2021/07/31 10:43:18;;;;;;;22.35;4.97;;;;;;;25.70;34.27;98176.19;5010252;28;20055;-80
2021/07/31 10:45:44;;;;;;;25.63;4.63;;;;;;;25.89;34.50;98167.16;5013176;28;20042;-81
2021/07/31 10:48:33;;;;;;;16.30;4.05;;;;;;;26.11;33.69;98188.47;4980501;28;20045;-80
2021/07/31 10:50:59;;;;;;;20.92;4.03;;;;;;;26.12;33.73;98184.47;5009719;28;20042;-80
2021/07/31 10:53:50;;;;;;;14.57;3.80;;;;;;;26.30;33.10;98207.47;5014101;28;20038;-78
2021/07/31 10:56:17;;;;;;;20.38;3.83;;;;;;;26.41;33.75;98228.94;5006804;28;20046;-80
2021/07/31 10:59:19;;;;;;;11.18;4.28;;;;;;;26.31;32.63;98211.88;5000908;28;20057;-79
2021/07/31 11:01:46;;;;;;;11.07;4.03;;;;;;;26.33;32.98;98208.63;5011617;28;20057;-81
2021/07/31 11:04:30;;;;;;;;;;;;;;;26.46;32.71;98195.66;5003557;28;20050;-80
2021/07/31 11:07:16;;;;;;;18.83;4.28;;;;;;;26.55;33.11;98191.53;5008215;28;19930;-80
2021/07/31 11:10:28;;;;;;;12.43;4.22;;;;;;;26.65;31.77;98212.22;5018597;28;20442;-80
2021/07/31 11:12:54;;;;;;;11.50;4.22;;;;;;;26.57;31.65;98211.53;5003539;28;20053;-80
2021/07/31 11:15:21;;;;;;;12.70;4.33;;;;;;;26.46;31.82;98214.47;5010591;28;20526;-81
2021/07/31 11:17:54;;;;;;;23.70;5.00;;;;;;;26.50;31.76;98222.81;4983996;28;20093;-80
2021/07/31 11:20:30;;;;;;;15.98;3.90;;;;;;;26.52;32.03;98242.78;5010431;28;20050;-80
2021/07/31 11:23:03;;;;;;;16.38;4.00;;;;;;;26.37;32.61;98265.38;4998136;28;20070;-81
2021/07/31 11:25:30;;;;;;;13.15;4.20;;;;;;;26.46;32.36;98225.69;5002356;28;20042;-81
2021/07/31 11:27:58;;;;;;;14.43;3.93;;;;;;;26.49;32.92;98216.44;5008469;28;20050;-79
2021/07/31 11:30:48;;;;;;;14.48;4.80;;;;;;;26.80;32.92;98207.16;5010979;28;20436;-80
2021/07/31 11:33:20;;;;;;;24.67;4.70;;;;;;;27.00;32.83;98230.50;4987597;28;20597;-79
2021/07/31 11:35:47;;;;;;;15.05;4.40;;;;;;;27.11;33.10;98201.50;5016291;28;20506;-77